createdAt,value
2019-01-20T00:00:18.097Z,-1.00
2019-01-20T00:03:24.534Z,-1.00
2019-01-20T00:06:29.380Z,-0.90
2019-01-20T00:09:34.222Z,-1.10
2019-01-20T00:12:39.087Z,-1.00
2019-01-20T00:15:45.554Z,-1.10
2019-01-20T00:18:51.486Z,-0.70
2019-01-20T00:21:56.319Z,-0.80
2019-01-20T00:25:01.227Z,-0.90
2019-01-20T00:28:06.113Z,-0.90
2019-01-20T00:31:10.956Z,-0.70
2019-01-20T00:34:15.785Z,-0.90
2019-01-20T00:37:21.531Z,-1.00
2019-01-20T00:40:26.447Z,-1.00
2019-01-20T00:43:31.273Z,-1.00
2019-01-20T00:46:36.119Z,-0.80
2019-01-20T00:49:40.938Z,-1.00
2019-01-20T00:52:45.890Z,-0.90
2019-01-20T00:55:50.749Z,-1.10
2019-01-20T00:58:55.655Z,-1.00
2019-01-20T01:02:00.585Z,-1.20
2019-01-20T01:05:06.455Z,-0.80
2019-01-20T01:08:11.694Z,-0.90
2019-01-20T01:11:16.525Z,-1.10
2019-01-20T01:14:21.406Z,-0.90
2019-01-20T01:17:26.279Z,-0.80
2019-01-20T01:20:31.142Z,-1.00
2019-01-20T01:23:36.301Z,-1.10
2019-01-20T01:26:41.219Z,-1.10
2019-01-20T01:29:46.050Z,-1.30
2019-01-20T01:32:51.388Z,-1.10
2019-01-20T01:35:56.326Z,-1.10
2019-01-20T01:39:01.198Z,-1.10
2019-01-20T01:42:07.123Z,-1.00
2019-01-20T01:45:14.824Z,-1.20
2019-01-20T01:48:19.650Z,-1.20
2019-01-20T01:51:24.524Z,-1.00
2019-01-20T01:54:29.519Z,-1.20
2019-01-20T01:57:34.358Z,-1.40
2019-01-20T02:00:39.348Z,-1.50
2019-01-20T02:03:44.211Z,-1.10
2019-01-20T02:06:49.041Z,-1.40
2019-01-20T02:09:54.944Z,-1.40
2019-01-20T02:13:00.022Z,-1.40
2019-01-20T02:16:05.643Z,-1.40
2019-01-20T02:19:10.469Z,-1.30
2019-01-20T02:22:15.343Z,-1.30
2019-01-20T02:25:20.307Z,-1.30
2019-01-20T02:28:26.045Z,-1.50
2019-01-20T02:31:30.881Z,-1.50
2019-01-20T02:34:35.762Z,-1.50
2019-01-20T02:37:40.707Z,-1.60
2019-01-20T02:40:45.563Z,-1.40
2019-01-20T02:43:50.501Z,-1.60
2019-01-20T02:46:55.377Z,-1.40
2019-01-20T02:50:00.217Z,-1.60
2019-01-20T02:53:05.072Z,-1.60
2019-01-20T02:56:09.902Z,-1.60
2019-01-20T02:59:14.770Z,-1.80
2019-01-20T03:02:19.704Z,-1.40
2019-01-20T03:05:24.809Z,-1.60
2019-01-20T03:08:29.703Z,-1.40
2019-01-20T03:11:34.559Z,-1.70
2019-01-20T03:14:39.377Z,-1.70
2019-01-20T03:17:44.306Z,-1.70
2019-01-20T03:20:49.385Z,-1.40
2019-01-20T03:23:54.295Z,-1.50
2019-01-20T03:26:59.113Z,-1.70
2019-01-20T03:30:07.306Z,-1.70
2019-01-20T03:33:12.248Z,-1.80
2019-01-20T03:36:17.071Z,-1.80
2019-01-20T03:39:21.928Z,-1.60
2019-01-20T03:42:26.798Z,-1.80
2019-01-20T03:45:31.662Z,-1.50
2019-01-20T03:48:36.494Z,-1.60
2019-01-20T03:51:41.357Z,-1.90
2019-01-20T03:54:46.193Z,-2.00
2019-01-20T03:57:51.053Z,-1.80
2019-01-20T04:00:55.907Z,-2.10
2019-01-20T04:04:00.761Z,-2.00
2019-01-20T04:07:24.935Z,-2.00
2019-01-20T04:10:29.805Z,-1.90
2019-01-20T04:13:34.703Z,-1.80
2019-01-20T04:16:39.540Z,-2.00
2019-01-20T04:19:44.391Z,-1.90
2019-01-20T04:22:49.255Z,-1.90
2019-01-20T04:25:54.102Z,-2.20
2019-01-20T04:28:58.934Z,-2.10
2019-01-20T04:32:03.903Z,-2.20
2019-01-20T04:35:10.705Z,-2.20
2019-01-20T04:38:15.598Z,-2.20
2019-01-20T04:41:20.441Z,-2.20
2019-01-20T04:44:25.330Z,-2.20
2019-01-20T04:47:30.266Z,-2.20
2019-01-20T04:50:35.137Z,-2.30
2019-01-20T04:53:40.666Z,-2.20
2019-01-20T04:56:45.494Z,-2.20
2019-01-20T04:59:50.359Z,-2.20
2019-01-20T05:02:55.235Z,-2.00
2019-01-20T05:06:00.534Z,-2.00
2019-01-20T05:09:06.779Z,-2.10
2019-01-20T05:12:11.643Z,-2.20
2019-01-20T05:15:19.880Z,-2.30
2019-01-20T05:18:24.729Z,-2.40
2019-01-20T05:21:29.578Z,-2.20
2019-01-20T05:24:34.447Z,-2.30
2019-01-20T05:27:39.415Z,-2.40
2019-01-20T05:30:44.291Z,-2.30
2019-01-20T05:33:49.144Z,-2.20
2019-01-20T05:36:54.012Z,-2.20
2019-01-20T05:39:59.630Z,-2.40
2019-01-20T05:43:04.544Z,-2.20
2019-01-20T05:46:09.404Z,-2.30
2019-01-20T05:49:14.317Z,-2.20
2019-01-20T05:52:19.141Z,-2.30
2019-01-20T05:55:24.008Z,-2.40
2019-01-20T05:58:28.924Z,-2.30
2019-01-20T06:01:33.770Z,-2.60
2019-01-20T06:04:38.711Z,-2.30
2019-01-20T06:07:43.626Z,-2.50
2019-01-20T06:10:48.511Z,-2.50
2019-01-20T06:13:53.403Z,-2.50
2019-01-20T06:16:58.322Z,-2.60
2019-01-20T06:20:04.354Z,-2.40
2019-01-20T06:23:09.229Z,-2.60
2019-01-20T06:26:14.190Z,-2.50
2019-01-20T06:29:19.319Z,-2.70
2019-01-20T06:32:24.175Z,-2.50
2019-01-20T06:35:29.039Z,-2.70
2019-01-20T06:38:33.946Z,-2.80
2019-01-20T06:41:38.877Z,-2.60
2019-01-20T06:44:43.800Z,-2.50
2019-01-20T06:47:48.645Z,-2.50
2019-01-20T06:50:54.559Z,-2.70
2019-01-20T06:53:59.465Z,-2.50
2019-01-20T06:57:04.334Z,-2.80
2019-01-20T07:00:17.685Z,-2.50
2019-01-20T07:03:22.589Z,-2.60
2019-01-20T07:06:27.430Z,-2.60
2019-01-20T07:09:32.389Z,-2.60
2019-01-20T07:12:37.882Z,-2.60
2019-01-20T07:15:42.759Z,-2.50
2019-01-20T07:18:47.618Z,-2.60
2019-01-20T07:21:52.490Z,-2.60
2019-01-20T07:24:57.902Z,-2.60
2019-01-20T07:28:02.957Z,-2.60
2019-01-20T07:31:07.871Z,-3.00
2019-01-20T07:34:12.721Z,-2.70
2019-01-20T07:37:17.615Z,-2.50
2019-01-20T07:40:23.462Z,-2.60
2019-01-20T07:43:28.287Z,-2.70
2019-01-20T07:46:33.259Z,-2.80
2019-01-20T07:49:38.107Z,-2.80
2019-01-20T07:52:43.098Z,-2.40
2019-01-20T07:55:48.846Z,-2.30
2019-01-20T07:58:53.718Z,-2.50
2019-01-20T08:01:58.549Z,-2.30
2019-01-20T08:05:03.763Z,-2.20
2019-01-20T08:08:08.586Z,-2.30
2019-01-20T08:11:13.435Z,-2.20
2019-01-20T08:14:19.506Z,-2.00
2019-01-20T08:17:24.835Z,-2.10
2019-01-20T08:20:29.734Z,-1.90
2019-01-20T08:23:34.622Z,-2.00
2019-01-20T08:26:39.608Z,-1.70
2019-01-20T08:29:44.492Z,-1.80
2019-01-20T08:32:49.576Z,-1.80
2019-01-20T08:35:54.454Z,-1.70
2019-01-20T08:38:59.317Z,-1.70
2019-01-20T08:42:04.241Z,-1.50
2019-01-20T08:45:12.251Z,-1.50
2019-01-20T08:48:22.963Z,-1.30
2019-01-20T08:51:28.803Z,-1.10
2019-01-20T08:54:33.961Z,-1.30
2019-01-20T08:57:38.849Z,-0.90
2019-01-20T09:00:43.738Z,-1.00
2019-01-20T09:03:48.657Z,-1.00
2019-01-20T09:06:53.510Z,-0.80
2019-01-20T09:09:59.066Z,-0.80
2019-01-20T09:13:05.747Z,-0.70
2019-01-20T09:16:11.358Z,-0.50
2019-01-20T09:19:16.310Z,-0.60
2019-01-20T09:22:21.249Z,-0.10
2019-01-20T09:25:26.436Z,-0.10
2019-01-20T09:28:31.377Z,-0.30
2019-01-20T09:31:36.251Z,0.30
2019-01-20T09:34:41.088Z,0.40
2019-01-20T09:37:46.058Z,0.50
2019-01-20T09:40:50.947Z,0.50
2019-01-20T09:43:56.536Z,0.40
2019-01-20T09:47:01.485Z,0.50
2019-01-20T09:50:08.290Z,0.50
2019-01-20T09:53:13.165Z,0.70
2019-01-20T09:56:18.075Z,0.80
2019-01-20T09:59:22.937Z,0.90
2019-01-20T10:02:27.864Z,0.90
2019-01-20T10:05:33.974Z,0.80
2019-01-20T10:08:39.057Z,0.80
2019-01-20T10:11:43.876Z,1.10
2019-01-20T10:14:48.710Z,1.10
2019-01-20T10:17:53.610Z,1.10
2019-01-20T10:20:58.495Z,1.30
2019-01-20T10:24:03.312Z,1.40
2019-01-20T10:27:09.484Z,1.80
2019-01-20T10:30:26.006Z,1.70
2019-01-20T10:33:30.951Z,1.80
2019-01-20T10:36:35.827Z,1.60
2019-01-20T10:39:40.758Z,1.70
2019-01-20T10:42:45.645Z,1.80
2019-01-20T10:45:51.391Z,2.00
2019-01-20T10:48:56.241Z,1.90
2019-01-20T10:52:01.679Z,1.80
2019-01-20T10:55:07.771Z,2.10
2019-01-20T10:58:12.702Z,2.30
2019-01-20T11:01:17.702Z,2.30
2019-01-20T11:04:22.594Z,2.30
2019-01-20T11:07:27.470Z,2.60
2019-01-20T11:10:33.434Z,2.50
2019-01-20T11:13:38.272Z,2.60
2019-01-20T11:16:43.135Z,2.70
2019-01-20T11:19:47.977Z,2.90
2019-01-20T11:22:54.591Z,3.10
2019-01-20T11:25:59.689Z,3.40
2019-01-20T11:29:04.530Z,3.60
2019-01-20T11:32:09.406Z,3.70
2019-01-20T11:35:17.041Z,3.60
2019-01-20T11:38:21.932Z,3.60
2019-01-20T11:41:28.413Z,3.50
2019-01-20T11:44:33.428Z,3.60
2019-01-20T11:47:41.991Z,3.80
2019-01-20T11:50:45.750Z,3.70
2019-01-20T11:53:50.625Z,3.40
2019-01-20T11:56:55.600Z,3.70
2019-01-20T12:00:00.475Z,3.50
2019-01-20T12:03:05.559Z,3.80
2019-01-20T12:06:10.457Z,3.90
2019-01-20T12:09:15.385Z,3.50
2019-01-20T12:12:20.323Z,3.50
2019-01-20T12:15:25.153Z,3.80
2019-01-20T12:18:30.016Z,3.80
2019-01-20T12:21:34.920Z,3.80
2019-01-20T12:24:39.757Z,3.80
2019-01-20T12:27:44.601Z,3.90
2019-01-20T12:30:49.451Z,3.90
2019-01-20T12:33:54.394Z,4.10
2019-01-20T12:36:59.262Z,3.80
2019-01-20T12:40:07.586Z,3.90
2019-01-20T12:43:12.471Z,4.20
2019-01-20T12:46:17.411Z,4.10
2019-01-20T12:49:22.238Z,4.30
2019-01-20T12:52:27.075Z,4.10
2019-01-20T12:55:32.069Z,4.30
2019-01-20T12:58:36.889Z,4.00
2019-01-20T13:01:42.393Z,4.10
2019-01-20T13:04:47.328Z,4.10
2019-01-20T13:07:52.163Z,4.00
2019-01-20T13:10:57.030Z,4.30
2019-01-20T13:14:01.899Z,4.10
2019-01-20T13:17:06.787Z,4.00
2019-01-20T13:20:18.544Z,4.10
2019-01-20T13:23:23.464Z,4.30
2019-01-20T13:26:29.151Z,4.10
2019-01-20T13:29:34.071Z,4.20
2019-01-20T13:32:38.920Z,4.20
2019-01-20T13:35:43.754Z,4.30
2019-01-20T13:38:48.609Z,3.70
2019-01-20T13:41:54.411Z,4.10
2019-01-20T13:44:59.311Z,3.80
2019-01-20T13:48:04.457Z,3.70
2019-01-20T13:51:09.338Z,3.60
2019-01-20T13:54:15.094Z,3.30
2019-01-20T13:57:21.719Z,3.30
2019-01-20T14:00:26.905Z,3.20
2019-01-20T14:03:31.842Z,3.00
2019-01-20T14:06:36.796Z,2.90
2019-01-20T14:09:41.733Z,2.90
2019-01-20T14:12:46.777Z,2.80
2019-01-20T14:15:51.646Z,3.00
2019-01-20T14:18:56.813Z,2.90
2019-01-20T14:22:01.814Z,2.90
2019-01-20T14:25:09.710Z,2.60
2019-01-20T14:28:14.599Z,2.60
2019-01-20T14:31:19.521Z,2.40
2019-01-20T14:34:25.444Z,2.30
2019-01-20T14:37:30.429Z,2.40
2019-01-20T14:40:35.473Z,2.20
2019-01-20T14:43:41.890Z,2.10
2019-01-20T14:46:46.916Z,1.90
2019-01-20T14:49:51.811Z,1.90
2019-01-20T14:52:56.824Z,1.80
2019-01-20T14:56:01.721Z,1.80
2019-01-20T14:59:07.653Z,1.50
2019-01-20T15:02:13.415Z,1.40
2019-01-20T15:05:18.465Z,1.30
2019-01-20T15:08:24.742Z,1.40
2019-01-20T15:11:29.652Z,1.00
2019-01-20T15:14:34.533Z,1.00
2019-01-20T15:17:41.439Z,1.10
2019-01-20T15:20:46.273Z,0.90
2019-01-20T15:23:51.150Z,1.10
2019-01-20T15:26:56.019Z,1.10
2019-01-20T15:30:00.956Z,1.00
2019-01-20T15:33:06.448Z,1.10
2019-01-20T15:36:11.541Z,0.90
2019-01-20T15:39:16.465Z,0.90
2019-01-20T15:42:21.382Z,0.90
2019-01-20T15:45:26.203Z,0.90
2019-01-20T15:48:31.061Z,0.50
2019-01-20T15:51:36.007Z,0.90
2019-01-20T15:54:40.841Z,0.80
2019-01-20T15:57:45.663Z,0.90
2019-01-20T16:00:50.588Z,0.50
2019-01-20T16:03:55.534Z,0.80
2019-01-20T16:07:00.376Z,0.80
2019-01-20T16:10:11.620Z,0.60
2019-01-20T16:13:16.575Z,0.70
2019-01-20T16:16:21.957Z,0.60
2019-01-20T16:19:27.042Z,0.40
2019-01-20T16:22:31.877Z,0.60
2019-01-20T16:25:37.294Z,0.20
2019-01-20T16:28:42.150Z,0.20
2019-01-20T16:31:47.214Z,0.50
2019-01-20T16:34:56.780Z,0.40
2019-01-20T16:38:04.371Z,0.50
2019-01-20T16:41:09.578Z,0.10
2019-01-20T16:44:14.790Z,0.40
2019-01-20T16:47:19.844Z,0.30
2019-01-20T16:50:25.975Z,0.30
2019-01-20T16:53:31.106Z,0.20
2019-01-20T16:56:36.369Z,0.30
2019-01-20T16:59:41.487Z,-0.10
2019-01-20T17:02:46.766Z,-0.20
2019-01-20T17:05:51.859Z,0.30
2019-01-20T17:08:56.800Z,0.10
2019-01-20T17:12:01.674Z,-0.10
2019-01-20T17:15:09.642Z,0.30
2019-01-20T17:18:14.544Z,0.30
2019-01-20T17:21:19.602Z,0.10
2019-01-20T17:24:24.490Z,-0.20
2019-01-20T17:27:31.436Z,0.00
2019-01-20T17:30:39.278Z,0.10
2019-01-20T17:33:44.141Z,0.00
2019-01-20T17:36:50.733Z,-0.10
2019-01-20T17:39:55.644Z,0.00
2019-01-20T17:43:00.538Z,-0.10
2019-01-20T17:46:05.683Z,-0.10
2019-01-20T17:49:10.633Z,-0.50
2019-01-20T17:52:15.611Z,-0.20
2019-01-20T17:55:20.477Z,-0.20
2019-01-20T17:58:25.358Z,-0.20
2019-01-20T18:01:30.219Z,-0.40
2019-01-20T18:04:35.135Z,-0.50
2019-01-20T18:07:40.055Z,-0.20
2019-01-20T18:10:44.908Z,-0.10
2019-01-20T18:13:49.737Z,-0.40
2019-01-20T18:16:54.577Z,-0.60
2019-01-20T18:19:59.425Z,-0.60
2019-01-20T18:23:04.458Z,-0.40
2019-01-20T18:26:09.345Z,-0.60
2019-01-20T18:29:14.194Z,-0.50
2019-01-20T18:32:19.962Z,-0.20
2019-01-20T18:35:27.192Z,-0.60
2019-01-20T18:38:32.143Z,-0.40
2019-01-20T18:41:37.193Z,-0.70
2019-01-20T18:44:42.117Z,-0.20
2019-01-20T18:47:47.192Z,-0.30
2019-01-20T18:50:52.049Z,-0.60
2019-01-20T18:53:57.086Z,-0.70
2019-01-20T18:57:01.940Z,-0.60
2019-01-20T19:00:15.764Z,-0.20
2019-01-20T19:03:21.474Z,-0.60
2019-01-20T19:06:26.433Z,-0.60
2019-01-20T19:09:33.198Z,-0.70
2019-01-20T19:12:38.136Z,-0.50
2019-01-20T19:15:43.311Z,-0.30
2019-01-20T19:18:48.171Z,-0.50
2019-01-20T19:21:53.269Z,-0.40
2019-01-20T19:24:58.195Z,-0.50
2019-01-20T19:28:03.132Z,-0.50
2019-01-20T19:31:08.040Z,-0.50
2019-01-20T19:34:12.937Z,-0.50
2019-01-20T19:37:17.827Z,-0.70
2019-01-20T19:40:22.691Z,-0.90
2019-01-20T19:43:27.622Z,-0.80
2019-01-20T19:46:33.620Z,-0.80
2019-01-20T19:49:38.545Z,-0.90
2019-01-20T19:52:43.662Z,-0.80
2019-01-20T19:55:48.867Z,-0.90
2019-01-20T19:58:53.926Z,-0.50
2019-01-20T20:01:59.442Z,-0.80
2019-01-20T20:05:08.206Z,-0.60
2019-01-20T20:08:13.491Z,-0.90
2019-01-20T20:11:18.346Z,-0.60
2019-01-20T20:14:23.212Z,-0.50
2019-01-20T20:17:28.075Z,-0.80
2019-01-20T20:20:32.930Z,-0.70
2019-01-20T20:23:37.795Z,-0.50
2019-01-20T20:26:42.691Z,-0.50
2019-01-20T20:29:47.562Z,-0.80
2019-01-20T20:32:52.486Z,-0.90
2019-01-20T20:35:57.341Z,-0.80
2019-01-20T20:39:02.215Z,-0.80
2019-01-20T20:42:08.392Z,-0.90
2019-01-20T20:45:15.979Z,-0.70
2019-01-20T20:48:21.159Z,-0.90
2019-01-20T20:51:26.049Z,-0.90
2019-01-20T20:54:35.370Z,-0.70
2019-01-20T20:57:37.671Z,-0.80
2019-01-20T21:00:42.554Z,-0.60
2019-01-20T21:03:47.460Z,-0.80
2019-01-20T21:06:52.308Z,-0.90
2019-01-20T21:09:57.454Z,-0.80
2019-01-20T21:13:02.396Z,-0.80
2019-01-20T21:16:07.257Z,-0.90
2019-01-20T21:19:12.106Z,-0.80
2019-01-20T21:22:17.023Z,-0.90
2019-01-20T21:25:21.890Z,-0.90
2019-01-20T21:28:26.762Z,-1.10
2019-01-20T21:31:31.626Z,-0.90
2019-01-20T21:34:36.586Z,-0.90
2019-01-20T21:37:41.498Z,-0.60
2019-01-20T21:40:46.497Z,-0.90
2019-01-20T21:43:51.421Z,-0.80
2019-01-20T21:46:56.347Z,-0.90
2019-01-20T21:50:01.194Z,-0.90
2019-01-20T21:53:06.321Z,-0.90
2019-01-20T21:56:11.218Z,-1.00
2019-01-20T21:59:16.085Z,-0.90
2019-01-20T22:02:20.955Z,-0.80
2019-01-20T22:05:25.874Z,-0.70
2019-01-20T22:08:50.045Z,-1.10
2019-01-20T22:11:55.008Z,-1.00
2019-01-20T22:14:59.854Z,-1.10
2019-01-20T22:18:05.040Z,-0.80
2019-01-20T22:21:10.847Z,-0.80
2019-01-20T22:24:15.684Z,-1.00
2019-01-20T22:27:20.556Z,-0.90
2019-01-20T22:30:26.373Z,-0.90
2019-01-20T22:33:31.233Z,-0.70
2019-01-20T22:36:36.073Z,-0.90
2019-01-20T22:39:40.907Z,-0.90
2019-01-20T22:42:46.095Z,-0.90
2019-01-20T22:45:50.905Z,-1.10
2019-01-20T22:48:55.746Z,-0.80
2019-01-20T22:52:00.625Z,-0.70
2019-01-20T22:55:09.271Z,-0.70
2019-01-20T22:58:14.107Z,-1.10
2019-01-20T23:01:19.898Z,-0.90
2019-01-20T23:04:24.750Z,-0.90
2019-01-20T23:07:29.604Z,-0.90
2019-01-20T23:10:34.534Z,-1.00
2019-01-20T23:13:39.363Z,-0.60
2019-01-20T23:16:44.262Z,-0.80
2019-01-20T23:19:49.131Z,-0.90
2019-01-20T23:22:53.975Z,-0.80
2019-01-20T23:25:58.805Z,-0.90
2019-01-20T23:29:03.829Z,-0.40
2019-01-20T23:32:08.763Z,-0.60
2019-01-20T23:35:14.039Z,-0.60
2019-01-20T23:38:19.067Z,-0.70
2019-01-20T23:41:23.995Z,-0.50
2019-01-20T23:44:28.818Z,-0.60
2019-01-20T23:47:33.697Z,-0.90
2019-01-20T23:50:38.510Z,-0.90
2019-01-20T23:53:43.371Z,-1.10
2019-01-20T23:56:48.190Z,-1.10
2019-01-20T23:59:53.065Z,-1.10
